Time;durP1;ratioP1;P1;durP2;ratioP2;P2;SDS_P1;SDS_P2;PMS_P1;PMS_P2;Temp;Humidity;BMP_temperature;BMP_pressure;BME280_temperature;BME280_humidity;BME280_pressure;Samples;Min_cycle;Max_cycle;Signal;HPM_P1;HPM_P2
2023/12/12 00:01:03;;;;;;;17.27;5.70;;;;;;;;;;5042798;28;20064;-62
2023/12/12 00:03:29;;;;;;;13.27;5.68;;;;;;;;;;5047426;28;20090;-61
2023/12/12 00:05:54;;;;;;;15.10;6.22;;;;;;;;;;5046661;28;20037;-62
2023/12/12 00:08:19;;;;;;;14.02;5.60;;;;;;;;;;5044655;28;20040;-62
2023/12/12 00:10:45;;;;;;;17.40;6.07;;;;;;;;;;5033518;28;20044;-62
2023/12/12 00:13:10;;;;;;;14.85;5.80;;;;;;;;;;5051034;28;20051;-62
2023/12/12 00:15:36;;;;;;;13.43;5.20;;;;;;;;;;5044824;28;20034;-61
2023/12/12 00:18:01;;;;;;;16.00;5.55;;;;;;;;;;5050905;28;20028;-61
2023/12/12 00:20:27;;;;;;;10.07;4.80;;;;;;;;;;5011854;28;20141;-60
2023/12/12 00:22:52;;;;;;;14.07;5.47;;;;;;;;;;5045834;28;20033;-61
2023/12/12 00:25:17;;;;;;;16.20;5.35;;;;;;;;;;5049689;28;20055;-62
2023/12/12 00:27:43;;;;;;;15.52;5.18;;;;;;;;;;5022775;28;20041;-62
2023/12/12 00:30:08;;;;;;;16.10;5.38;;;;;;;;;;5038598;28;20057;-62
2023/12/12 00:32:34;;;;;;;13.65;5.00;;;;;;;;;;5045691;28;20029;-61
2023/12/12 00:34:59;;;;;;;16.27;5.72;;;;;;;;;;5050791;28;20025;-61
2023/12/12 00:37:25;;;;;;;14.50;5.45;;;;;;;;;;5046025;28;20032;-61
2023/12/12 00:39:50;;;;;;;15.27;5.90;;;;;;;;;;5043282;28;20124;-63
2023/12/12 00:42:15;;;;;;;15.40;5.90;;;;;;;;;;5041335;28;20459;-62
2023/12/12 00:44:41;;;;;;;18.65;7.13;;;;;;;;;;5049677;28;20387;-62
2023/12/12 00:47:06;;;;;;;17.23;4.82;;;;;;;;;;5045575;28;20074;-62
2023/12/12 00:49:31;;;;;;;14.85;4.25;;;;;;;;;;5046036;28;20476;-61
2023/12/12 00:51:57;;;;;;;12.23;4.63;;;;;;;;;;5048479;28;20391;-61
2023/12/12 00:54:22;;;;;;;10.77;4.10;;;;;;;;;;5050620;28;20142;-62
2023/12/12 00:56:48;;;;;;;13.38;4.15;;;;;;;;;;5036818;28;20029;-61
2023/12/12 00:59:16;;;;;;;10.35;4.10;;;;;;;;;;5044611;28;20480;-61
2023/12/12 01:01:41;;;;;;;10.77;3.92;;;;;;;;;;5030568;28;20108;-61
2023/12/12 01:04:10;;;;;;;13.57;4.10;;;;;;;;;;5053891;28;20425;-61
2023/12/12 01:06:35;;;;;;;12.57;3.70;;;;;;;;;;5048986;28;20086;-65
2023/12/12 01:09:01;;;;;;;10.05;4.15;;;;;;;;;;5050123;28;20037;-61
2023/12/12 01:11:26;;;;;;;13.60;4.45;;;;;;;;;;5052800;28;20440;-62
2023/12/12 01:13:52;;;;;;;12.93;4.10;;;;;;;;;;5050412;28;20051;-61
2023/12/12 01:16:17;;;;;;;12.90;3.65;;;;;;;;;;5044956;28;20115;-62
2023/12/12 01:18:43;;;;;;;10.55;3.47;;;;;;;;;;5051605;28;20116;-62
2023/12/12 01:21:08;;;;;;;9.45;3.80;;;;;;;;;;5049391;28;20084;-63
2023/12/12 01:23:53;;;;;;;13.00;3.53;;;;;;;;;;5047326;28;20037;-60
2023/12/12 01:26:19;;;;;;;10.20;3.50;;;;;;;;;;5037731;28;20040;-62
2023/12/12 01:28:45;;;;;;;12.27;4.05;;;;;;;;;;5023776;28;20037;-61
2023/12/12 01:31:11;;;;;;;14.40;3.65;;;;;;;;;;5049473;28;20467;-61
2023/12/12 01:33:36;;;;;;;12.45;3.70;;;;;;;;;;5051070;28;20029;-61
2023/12/12 01:36:02;;;;;;;8.45;3.72;;;;;;;;;;5047472;28;20029;-63
2023/12/12 01:38:27;;;;;;;10.68;4.10;;;;;;;;;;5030997;28;20037;-62
2023/12/12 01:40:53;;;;;;;11.73;3.90;;;;;;;;;;5049844;28;20624;-62
2023/12/12 01:43:26;;;;;;;12.82;3.78;;;;;;;;;;5042633;28;20033;-61
2023/12/12 01:45:54;;;;;;;10.50;3.75;;;;;;;;;;5035084;28;20026;-61
2023/12/12 01:48:20;;;;;;;8.57;3.90;;;;;;;;;;5013858;28;20087;-61
2023/12/12 01:50:46;;;;;;;13.23;3.80;;;;;;;;;;5030320;28;20101;-61
2023/12/12 01:53:13;;;;;;;14.60;3.92;;;;;;;;;;5051320;28;20506;-62
2023/12/12 01:55:39;;;;;;;13.27;4.10;;;;;;;;;;5040487;28;20034;-61
2023/12/12 01:58:05;;;;;;;12.27;3.88;;;;;;;;;;5013389;28;20041;-63
2023/12/12 02:00:31;;;;;;;13.20;3.80;;;;;;;;;;5014659;28;20029;-61
2023/12/12 02:02:57;;;;;;;9.27;3.70;;;;;;;;;;5014916;28;20167;-62
2023/12/12 02:05:25;;;;;;;10.38;3.80;;;;;;;;;;5049156;28;20127;-62
2023/12/12 02:07:53;;;;;;;12.98;3.80;;;;;;;;;;5021355;28;20042;-62
2023/12/12 02:10:19;;;;;;;13.57;4.60;;;;;;;;;;5034663;28;20028;-62
2023/12/12 02:12:44;;;;;;;14.27;3.65;;;;;;;;;;5041054;28;20063;-63
2023/12/12 02:15:09;;;;;;;9.82;3.95;;;;;;;;;;5043854;28;20380;-61
2023/12/12 02:17:35;;;;;;;9.85;3.30;;;;;;;;;;5050610;28;20082;-60
2023/12/12 02:20:01;;;;;;;12.57;3.63;;;;;;;;;;5012544;28;20354;-61
2023/12/12 02:22:26;;;;;;;8.93;3.60;;;;;;;;;;5033080;28;20037;-63
2023/12/12 02:24:52;;;;;;;11.07;3.50;;;;;;;;;;5045473;28;20042;-63
2023/12/12 02:27:18;;;;;;;12.23;3.88;;;;;;;;;;5052588;28;20127;-62
2023/12/12 02:29:44;;;;;;;12.25;3.85;;;;;;;;;;5030884;28;20036;-61
2023/12/12 02:32:09;;;;;;;13.07;3.63;;;;;;;;;;5042358;28;20030;-62
2023/12/12 02:34:34;;;;;;;10.15;3.92;;;;;;;;;;5051756;28;20091;-61
2023/12/12 02:37:00;;;;;;;10.63;3.72;;;;;;;;;;5047923;28;20537;-62
2023/12/12 02:39:25;;;;;;;11.63;3.80;;;;;;;;;;5052248;28;20029;-62
2023/12/12 02:41:50;;;;;;;9.80;3.80;;;;;;;;;;5034939;28;20033;-62
2023/12/12 02:44:16;;;;;;;11.60;3.67;;;;;;;;;;5047802;28;20033;-63
2023/12/12 02:46:41;;;;;;;11.88;4.05;;;;;;;;;;5049691;28;20051;-63
2023/12/12 02:49:06;;;;;;;12.52;3.55;;;;;;;;;;5046680;28;20467;-62
2023/12/12 02:51:32;;;;;;;10.70;3.67;;;;;;;;;;5048724;28;20045;-62
2023/12/12 02:53:57;;;;;;;14.05;4.07;;;;;;;;;;5048188;28;20191;-62
2023/12/12 02:56:23;;;;;;;11.25;3.85;;;;;;;;;;5035885;28;20034;-62
2023/12/12 02:58:48;;;;;;;13.10;3.80;;;;;;;;;;5039871;28;20029;-62
2023/12/12 03:01:14;;;;;;;14.00;4.72;;;;;;;;;;5045963;28;20400;-63
2023/12/12 03:03:39;;;;;;;9.65;3.50;;;;;;;;;;5048138;28;20040;-60
2023/12/12 03:06:07;;;;;;;12.13;4.45;;;;;;;;;;5036951;28;20036;-62
2023/12/12 03:08:32;;;;;;;11.73;3.70;;;;;;;;;;5048524;28;20037;-62
2023/12/12 03:10:57;;;;;;;9.02;3.67;;;;;;;;;;5048257;28;20639;-62
2023/12/12 03:13:23;;;;;;;11.05;3.90;;;;;;;;;;5046161;28;20096;-62
2023/12/12 03:15:48;;;;;;;12.98;3.60;;;;;;;;;;5045422;28;20036;-61
2023/12/12 03:18:13;;;;;;;13.02;3.67;;;;;;;;;;5051282;28;20494;-62
2023/12/12 03:20:39;;;;;;;14.63;3.60;;;;;;;;;;5047167;28;20157;-59
2023/12/12 03:23:04;;;;;;;13.13;4.60;;;;;;;;;;5041060;28;20036;-61
2023/12/12 03:25:29;;;;;;;14.55;3.85;;;;;;;;;;5047781;28;20378;-62
2023/12/12 03:27:55;;;;;;;12.55;3.75;;;;;;;;;;5045735;28;20076;-62
2023/12/12 03:30:20;;;;;;;13.40;3.90;;;;;;;;;;5041455;28;20384;-62
2023/12/12 03:32:46;;;;;;;15.70;4.07;;;;;;;;;;5035008;28;20045;-62
2023/12/12 03:35:11;;;;;;;16.65;4.22;;;;;;;;;;5033887;28;20052;-63
2023/12/12 03:37:36;;;;;;;12.77;4.00;;;;;;;;;;5048859;28;20035;-63
2023/12/12 03:40:03;;;;;;;13.48;3.90;;;;;;;;;;5047234;28;20090;-62
2023/12/12 03:42:28;;;;;;;13.02;3.53;;;;;;;;;;5040254;28;20460;-62
2023/12/12 03:44:54;;;;;;;15.57;4.45;;;;;;;;;;5045511;28;20037;-62
2023/12/12 03:47:19;;;;;;;11.98;3.97;;;;;;;;;;5050282;28;20044;-62
2023/12/12 03:49:44;;;;;;;13.05;4.00;;;;;;;;;;5032190;28;20033;-62
2023/12/12 03:52:10;;;;;;;12.50;4.00;;;;;;;;;;5038784;28;20073;-62
2023/12/12 03:54:35;;;;;;;13.10;3.92;;;;;;;;;;5042531;28;20130;-62
2023/12/12 03:57:00;;;;;;;12.07;3.55;;;;;;;;;;5050207;28;20487;-62
2023/12/12 03:59:26;;;;;;;20.02;3.78;;;;;;;;;;5046959;28;20337;-63
2023/12/12 04:01:51;;;;;;;18.85;3.90;;;;;;;;;;5049943;28;20235;-61
2023/12/12 04:04:17;;;;;;;18.63;4.25;;;;;;;;;;5045478;28;20029;-62
2023/12/12 04:06:47;;;;;;;14.70;4.13;;;;;;;;;;5042013;28;20119;-61
2023/12/12 04:09:12;;;;;;;18.40;4.10;;;;;;;;;;5015282;28;20037;-62
2023/12/12 04:11:38;;;;;;;18.90;4.10;;;;;;;;;;5049319;28;20028;-62
2023/12/12 04:14:03;;;;;;;13.68;4.00;;;;;;;;;;5045956;28;20545;-62
2023/12/12 04:16:29;;;;;;;15.98;4.63;;;;;;;;;;5033759;28;20032;-61
2023/12/12 04:18:54;;;;;;;13.95;3.88;;;;;;;;;;5017247;28;20120;-62
2023/12/12 04:21:19;;;;;;;22.40;4.70;;;;;;;;;;5013415;28;20507;-62
2023/12/12 04:23:45;;;;;;;15.82;4.30;;;;;;;;;;5027365;28;20120;-61
2023/12/12 04:26:11;;;;;;;23.30;4.40;;;;;;;;;;5046277;28;20041;-61
2023/12/12 04:28:36;;;;;;;15.57;4.30;;;;;;;;;;5046345;28;20422;-62
2023/12/12 04:31:02;;;;;;;19.17;4.53;;;;;;;;;;5045221;28;20029;-63
2023/12/12 04:33:27;;;;;;;15.05;4.55;;;;;;;;;;5048518;28;20051;-63
2023/12/12 04:35:53;;;;;;;18.00;3.92;;;;;;;;;;5028808;28;20051;-63
2023/12/12 04:38:18;;;;;;;22.10;4.45;;;;;;;;;;5052926;28;20064;-63
2023/12/12 04:40:44;;;;;;;22.13;4.28;;;;;;;;;;5051482;28;20040;-62
2023/12/12 04:43:09;;;;;;;19.27;4.03;;;;;;;;;;5054001;28;20057;-63
2023/12/12 04:45:34;;;;;;;18.60;4.70;;;;;;;;;;5044664;28;20041;-63
2023/12/12 04:48:00;;;;;;;17.17;4.30;;;;;;;;;;5051543;28;20076;-63
2023/12/12 04:50:25;;;;;;;18.60;4.20;;;;;;;;;;5052929;28;20024;-63
2023/12/12 04:52:51;;;;;;;26.38;4.82;;;;;;;;;;5051911;28;20056;-63
2023/12/12 04:55:17;;;;;;;23.08;5.38;;;;;;;;;;5048530;28;20040;-64
2023/12/12 04:57:58;;;;;;;15.82;4.07;;;;;;;;;;5052598;28;20036;-61
2023/12/12 05:00:24;;;;;;;18.38;4.97;;;;;;;;;;5043599;28;20095;-63
2023/12/12 05:02:49;;;;;;;15.05;4.43;;;;;;;;;;5044342;28;20436;-62
2023/12/12 05:05:15;;;;;;;20.80;4.00;;;;;;;;;;5052691;28;20086;-64
2023/12/12 05:07:40;;;;;;;22.13;4.90;;;;;;;;;;5049406;28;20072;-64
2023/12/12 05:10:06;;;;;;;20.05;4.25;;;;;;;;;;5051803;28;20138;-63
2023/12/12 05:12:32;;;;;;;21.60;4.72;;;;;;;;;;5052212;28;20060;-64
2023/12/12 05:14:57;;;;;;;22.23;4.30;;;;;;;;;;5042758;28;20060;-62
2023/12/12 05:17:22;;;;;;;18.40;4.25;;;;;;;;;;5051587;28;20033;-64
2023/12/12 05:19:48;;;;;;;21.10;4.57;;;;;;;;;;5047845;28;20112;-63
2023/12/12 05:22:13;;;;;;;17.52;4.63;;;;;;;;;;5053759;28;20036;-64
2023/12/12 05:24:38;;;;;;;18.88;4.00;;;;;;;;;;5049814;28;20083;-63
2023/12/12 05:27:04;;;;;;;16.88;4.50;;;;;;;;;;5050274;28;20221;-63
2023/12/12 05:29:29;;;;;;;21.42;4.20;;;;;;;;;;5047103;28;20033;-63
2023/12/12 05:31:55;;;;;;;18.98;4.20;;;;;;;;;;5043549;28;20029;-63
2023/12/12 05:34:20;;;;;;;28.98;4.78;;;;;;;;;;5037021;28;20037;-63
2023/12/12 05:36:45;;;;;;;20.58;4.70;;;;;;;;;;5052069;28;20107;-61
2023/12/12 05:39:11;;;;;;;24.10;4.82;;;;;;;;;;5047741;28;20087;-63
2023/12/12 05:41:36;;;;;;;19.30;4.13;;;;;;;;;;5049923;28;20456;-63
2023/12/12 05:44:02;;;;;;;18.42;4.70;;;;;;;;;;5051717;28;20025;-62
2023/12/12 05:46:27;;;;;;;16.92;4.15;;;;;;;;;;5047808;28;20463;-63
2023/12/12 05:48:53;;;;;;;21.85;4.60;;;;;;;;;;5049921;28;21553;-63
2023/12/12 05:51:18;;;;;;;27.83;5.22;;;;;;;;;;5053577;28;20067;-63
2023/12/12 05:53:43;;;;;;;22.25;4.20;;;;;;;;;;5049492;28;20163;-64
2023/12/12 05:56:09;;;;;;;23.42;5.22;;;;;;;;;;5037244;28;20438;-65
2023/12/12 05:58:34;;;;;;;20.10;4.45;;;;;;;;;;5047680;28;20041;-64
2023/12/12 06:01:00;;;;;;;26.38;4.88;;;;;;;;;;5052217;28;20037;-63
2023/12/12 06:03:25;;;;;;;26.70;4.68;;;;;;;;;;5037505;28;20101;-64
2023/12/12 06:05:50;;;;;;;17.20;4.25;;;;;;;;;;5052444;28;20025;-63
2023/12/12 06:08:16;;;;;;;22.73;4.30;;;;;;;;;;5046624;28;20444;-64
2023/12/12 06:10:41;;;;;;;19.77;4.05;;;;;;;;;;5048699;28;20025;-62
2023/12/12 06:13:08;;;;;;;19.75;4.28;;;;;;;;;;5034931;28;20036;-63
2023/12/12 06:15:33;;;;;;;21.92;5.20;;;;;;;;;;5053013;28;20033;-64
2023/12/12 06:17:59;;;;;;;18.10;4.40;;;;;;;;;;5045869;28;20039;-64
2023/12/12 06:20:25;;;;;;;20.75;4.13;;;;;;;;;;5050502;28;20490;-63
2023/12/12 06:22:50;;;;;;;23.23;4.43;;;;;;;;;;5020935;28;20458;-62
2023/12/12 06:25:16;;;;;;;18.67;4.32;;;;;;;;;;5032368;28;20116;-63
2023/12/12 06:27:41;;;;;;;20.40;4.25;;;;;;;;;;5025174;28;20115;-64
2023/12/12 06:30:07;;;;;;;24.00;4.75;;;;;;;;;;5011817;28;20962;-63
2023/12/12 06:32:32;;;;;;;26.92;5.68;;;;;;;;;;5012663;28;20030;-63
2023/12/12 06:34:59;;;;;;;23.67;4.95;;;;;;;;;;5012191;28;20029;-63
2023/12/12 06:37:25;;;;;;;29.55;5.25;;;;;;;;;;5037733;28;20037;-63
2023/12/12 06:39:50;;;;;;;26.67;4.97;;;;;;;;;;5049959;28;20040;-61
2023/12/12 06:42:15;;;;;;;23.85;4.50;;;;;;;;;;5050497;28;20151;-64
2023/12/12 06:44:41;;;;;;;21.58;4.78;;;;;;;;;;5052573;28;20028;-64
2023/12/12 06:47:06;;;;;;;25.70;5.72;;;;;;;;;;5045469;28;20024;-63
2023/12/12 06:49:32;;;;;;;27.45;5.50;;;;;;;;;;5049303;28;20037;-64
2023/12/12 06:51:57;;;;;;;23.60;5.47;;;;;;;;;;5047755;28;20140;-64
2023/12/12 06:54:23;;;;;;;28.13;6.03;;;;;;;;;;5050944;28;20032;-62
2023/12/12 06:56:49;;;;;;;24.73;5.40;;;;;;;;;;5049983;28;20079;-63
2023/12/12 06:59:14;;;;;;;23.17;5.57;;;;;;;;;;5051345;28;20410;-62
2023/12/12 07:01:40;;;;;;;25.95;5.55;;;;;;;;;;5039533;28;20030;-62
2023/12/12 07:04:05;;;;;;;24.88;5.38;;;;;;;;;;5049188;28;20037;-63
2023/12/12 07:06:30;;;;;;;31.08;6.93;;;;;;;;;;5049330;28;20040;-62
2023/12/12 07:08:57;;;;;;;24.08;6.20;;;;;;;;;;5048868;28;20037;-61
2023/12/12 07:11:23;;;;;;;21.25;5.90;;;;;;;;;;5050353;28;20036;-62
2023/12/12 07:13:48;;;;;;;23.23;5.30;;;;;;;;;;5049402;28;20115;-62
2023/12/12 07:16:13;;;;;;;22.02;5.70;;;;;;;;;;5046431;28;20608;-62
2023/12/12 07:18:39;;;;;;;26.83;6.03;;;;;;;;;;5048650;28;20064;-64
2023/12/12 07:21:05;;;;;;;26.08;5.93;;;;;;;;;;5049726;28;20084;-62
2023/12/12 07:23:31;;;;;;;24.40;6.50;;;;;;;;;;5047046;28;20025;-62
2023/12/12 07:25:57;;;;;;;22.23;6.03;;;;;;;;;;5048899;28;20040;-62
2023/12/12 07:28:23;;;;;;;21.83;5.82;;;;;;;;;;5037326;28;20480;-62
2023/12/12 07:30:48;;;;;;;26.42;5.68;;;;;;;;;;5044364;28;20047;-63
2023/12/12 07:33:14;;;;;;;22.45;6.15;;;;;;;;;;5044971;28;20097;-64
2023/12/12 07:35:39;;;;;;;30.52;6.13;;;;;;;;;;5047380;28;20028;-62
2023/12/12 07:38:04;;;;;;;26.30;6.20;;;;;;;;;;5032451;28;20033;-64
2023/12/12 07:40:30;;;;;;;23.40;6.43;;;;;;;;;;5051696;28;20033;-63
2023/12/12 07:42:56;;;;;;;28.15;6.32;;;;;;;;;;5049621;28;20159;-61
2023/12/12 07:45:22;;;;;;;21.85;6.00;;;;;;;;;;5051596;28;20166;-64
2023/12/12 07:47:47;;;;;;;23.52;6.20;;;;;;;;;;5048737;28;20115;-64
2023/12/12 07:50:13;;;;;;;30.38;7.25;;;;;;;;;;5044206;28;20037;-64
2023/12/12 07:52:38;;;;;;;22.13;7.25;;;;;;;;;;5047518;28;20039;-64
2023/12/12 07:55:05;;;;;;;24.83;7.22;;;;;;;;;;5037075;28;20041;-62
2023/12/12 07:57:31;;;;;;;31.75;6.90;;;;;;;;;;5049894;28;20047;-63
2023/12/12 07:59:57;;;;;;;30.48;9.45;;;;;;;;;;5045395;28;20056;-61
2023/12/12 08:02:22;;;;;;;25.45;6.72;;;;;;;;;;5037099;28;20030;-63
2023/12/12 08:04:48;;;;;;;21.40;6.75;;;;;;;;;;5048248;28;20044;-65
2023/12/12 08:07:13;;;;;;;25.35;6.35;;;;;;;;;;5051473;28;20037;-63
2023/12/12 08:09:39;;;;;;;20.58;5.78;;;;;;;;;;5051595;28;20057;-62
2023/12/12 08:12:04;;;;;;;22.45;5.40;;;;;;;;;;5054487;28;20067;-63
2023/12/12 08:14:30;;;;;;;22.77;5.38;;;;;;;;;;5052455;28;20056;-63
2023/12/12 08:16:55;;;;;;;21.52;6.47;;;;;;;;;;5045894;28;20036;-61
2023/12/12 08:19:21;;;;;;;20.83;5.82;;;;;;;;;;5049552;28;20059;-63
2023/12/12 08:21:46;;;;;;;26.20;5.70;;;;;;;;;;5050825;28;20033;-63
2023/12/12 08:24:12;;;;;;;20.40;5.13;;;;;;;;;;5051576;28;20496;-63
2023/12/12 08:26:46;;;;;;;22.15;5.72;;;;;;;;;;5048871;28;20037;-64
2023/12/12 08:29:13;;;;;;;30.92;7.00;;;;;;;;;;5054198;28;20036;-63
2023/12/12 08:31:39;;;;;;;19.17;5.32;;;;;;;;;;5049775;28;20108;-64
2023/12/12 08:34:04;;;;;;;23.08;5.40;;;;;;;;;;5051805;28;20068;-63
2023/12/12 08:36:30;;;;;;;19.05;5.30;;;;;;;;;;5048938;28;20458;-63
2023/12/12 08:38:58;;;;;;;22.73;5.70;;;;;;;;;;5035281;28;20357;-61
2023/12/12 08:41:24;;;;;;;19.45;5.90;;;;;;;;;;5043364;28;20057;-62
2023/12/12 08:43:49;;;;;;;23.25;5.20;;;;;;;;;;5054648;28;20060;-63
2023/12/12 08:46:14;;;;;;;25.25;6.40;;;;;;;;;;5048799;28;21007;-64
2023/12/12 08:48:40;;;;;;;21.77;6.10;;;;;;;;;;5054498;28;20041;-63
2023/12/12 08:51:05;;;;;;;18.40;5.70;;;;;;;;;;5051071;28;20025;-62
2023/12/12 08:53:31;;;;;;;20.77;6.30;;;;;;;;;;5054545;28;20083;-62
2023/12/12 08:55:56;;;;;;;20.65;6.10;;;;;;;;;;5046500;28;20419;-61
2023/12/12 08:58:27;;;;;;;20.52;5.25;;;;;;;;;;5040111;28;20112;-62
2023/12/12 09:00:53;;;;;;;;;;;;;;;;;;5038519;28;20107;-62
2023/12/12 09:03:19;;;;;;;21.08;4.35;;;;;;;;;;5050468;28;19909;-62
2023/12/12 09:05:44;;;;;;;19.40;5.32;;;;;;;;;;5044318;28;20041;-63
2023/12/12 09:08:10;;;;;;;18.95;4.80;;;;;;;;;;5038976;28;20086;-62
2023/12/12 09:10:36;;;;;;;13.85;4.40;;;;;;;;;;5051789;28;20499;-65
2023/12/12 09:13:02;;;;;;;19.38;4.40;;;;;;;;;;5043329;28;20508;-62
2023/12/12 09:15:27;;;;;;;17.30;4.07;;;;;;;;;;5048504;28;20116;-63
2023/12/12 09:17:53;;;;;;;14.68;4.10;;;;;;;;;;5052771;28;20539;-63
2023/12/12 09:20:18;;;;;;;15.70;4.38;;;;;;;;;;5053232;28;20045;-64
2023/12/12 09:22:43;;;;;;;18.50;4.32;;;;;;;;;;5047407;28;20051;-64
2023/12/12 09:25:09;;;;;;;14.68;4.00;;;;;;;;;;5046614;28;20035;-62
2023/12/12 09:27:34;;;;;;;14.98;4.18;;;;;;;;;;5044424;28;20030;-64
2023/12/12 09:30:00;;;;;;;19.10;4.47;;;;;;;;;;5044081;28;20061;-60
2023/12/12 09:32:25;;;;;;;19.73;3.97;;;;;;;;;;5049776;28;20041;-64
2023/12/12 09:34:51;;;;;;;12.77;3.70;;;;;;;;;;5055236;28;20369;-65
2023/12/12 09:37:16;;;;;;;15.75;4.55;;;;;;;;;;5052984;28;20064;-63
2023/12/12 09:39:42;;;;;;;20.30;3.92;;;;;;;;;;5049280;28;20056;-64
2023/12/12 09:42:12;;;;;;;17.25;3.78;;;;;;;;;;5052800;28;20031;-62
2023/12/12 09:44:43;;;;;;;12.10;3.42;;;;;;;;;;5048696;28;20426;-63
2023/12/12 09:47:09;;;;;;;23.00;4.70;;;;;;;;;;5039052;28;20063;-63
2023/12/12 09:49:36;;;;;;;18.48;4.15;;;;;;;;;;5013740;28;20034;-62
2023/12/12 09:52:02;;;;;;;18.00;3.50;;;;;;;;;;5049370;28;20082;-61
2023/12/12 09:54:29;;;;;;;16.65;3.70;;;;;;;;;;5048289;28;20029;-62
2023/12/12 09:56:54;;;;;;;15.93;3.65;;;;;;;;;;5030482;28;20033;-63
2023/12/12 09:59:20;;;;;;;13.45;4.07;;;;;;;;;;5040357;28;20595;-63
2023/12/12 10:01:47;;;;;;;16.67;3.60;;;;;;;;;;5033177;28;20040;-63
2023/12/12 10:04:17;;;;;;;12.20;3.90;;;;;;;;;;5031116;28;20038;-62
2023/12/12 10:06:49;;;;;;;13.95;3.70;;;;;;;;;;5053117;28;20043;-62
2023/12/12 10:09:15;;;;;;;13.25;3.58;;;;;;;;;;5028841;28;20049;-63
2023/12/12 10:11:40;;;;;;;12.05;3.65;;;;;;;;;;5030079;28;20036;-63
2023/12/12 10:14:05;;;;;;;15.45;3.78;;;;;;;;;;5028856;28;20030;-61
2023/12/12 10:16:31;;;;;;;14.70;3.53;;;;;;;;;;5013224;28;20026;-62
2023/12/12 10:19:01;;;;;;;12.98;3.33;;;;;;;;;;5012855;28;20030;-63
2023/12/12 10:21:27;;;;;;;12.98;3.13;;;;;;;;;;5013379;28;20042;-63
2023/12/12 10:23:54;;;;;;;11.10;3.30;;;;;;;;;;5013384;28;20057;-65
2023/12/12 10:26:30;;;;;;;15.70;3.63;;;;;;;;;;5012589;28;20030;-64
2023/12/12 10:28:56;;;;;;;17.00;3.33;;;;;;;;;;5012685;28;20030;-62
2023/12/12 10:31:22;;;;;;;13.05;3.42;;;;;;;;;;5012009;28;20902;-62
2023/12/12 10:33:49;;;;;;;11.35;3.03;;;;;;;;;;5012887;28;20120;-62
2023/12/12 10:36:14;;;;;;;12.70;3.60;;;;;;;;;;5012100;28;20034;-61
2023/12/12 10:38:40;;;;;;;12.60;3.05;;;;;;;;;;5013349;28;20038;-63
2023/12/12 10:41:16;;;;;;;12.23;2.92;;;;;;;;;;5012508;28;20497;-60
2023/12/12 10:43:43;;;;;;;11.45;2.97;;;;;;;;;;5012655;28;20021;-62
2023/12/12 10:46:14;;;;;;;12.15;2.92;;;;;;;;;;5010759;28;20348;-62
2023/12/12 10:48:48;;;;;;;12.77;2.83;;;;;;;;;;5011588;28;20060;-65
2023/12/12 10:51:15;;;;;;;9.45;2.85;;;;;;;;;;5011961;28;20091;-64
2023/12/12 10:53:42;;;;;;;9.57;2.60;;;;;;;;;;5011199;28;20034;-64
2023/12/12 10:56:10;;;;;;;11.65;2.80;;;;;;;;;;5012243;28;20117;-62
2023/12/12 10:58:37;;;;;;;7.25;2.30;;;;;;;;;;5012562;28;20427;-63
2023/12/12 11:01:03;;;;;;;10.15;2.90;;;;;;;;;;5012532;28;20310;-64
2023/12/12 11:03:29;;;;;;;11.85;3.13;;;;;;;;;;5011410;28;20033;-64
2023/12/12 11:05:55;;;;;;;7.85;2.38;;;;;;;;;;5012327;28;20033;-64
2023/12/12 11:08:21;;;;;;;6.85;2.60;;;;;;;;;;5011436;28;20041;-62
2023/12/12 11:10:50;;;;;;;9.07;2.60;;;;;;;;;;5015935;28;20153;-62
2023/12/12 11:13:17;;;;;;;9.77;2.38;;;;;;;;;;5038171;28;20038;-62
2023/12/12 11:15:44;;;;;;;8.77;2.65;;;;;;;;;;5023352;28;20388;-62
2023/12/12 11:18:10;;;;;;;8.90;2.03;;;;;;;;;;5049654;28;20036;-63
2023/12/12 11:20:37;;;;;;;8.52;2.60;;;;;;;;;;5045582;28;20120;-64
2023/12/12 11:23:05;;;;;;;7.47;2.30;;;;;;;;;;5048041;28;20040;-64
2023/12/12 11:25:31;;;;;;;8.25;1.98;;;;;;;;;;5043829;28;20061;-64
2023/12/12 11:28:01;;;;;;;10.38;2.47;;;;;;;;;;5040578;28;20119;-62
2023/12/12 11:30:45;;;;;;;7.65;2.17;;;;;;;;;;5043767;28;20243;-63
2023/12/12 11:33:11;;;;;;;4.97;2.22;;;;;;;;;;5042883;28;20530;-61
2023/12/12 11:35:36;;;;;;;11.10;2.97;;;;;;;;;;5051429;28;20068;-62
2023/12/12 11:38:04;;;;;;;6.60;2.40;;;;;;;;;;5051533;28;20379;-63
2023/12/12 11:40:33;;;;;;;6.13;2.00;;;;;;;;;;5045834;28;20048;-63
2023/12/12 11:43:16;;;;;;;6.90;2.08;;;;;;;;;;5051330;28;20068;-64
2023/12/12 11:45:42;;;;;;;7.43;2.17;;;;;;;;;;5051374;28;20029;-63
2023/12/12 11:48:08;;;;;;;8.70;1.90;;;;;;;;;;5047380;28;20031;-61
2023/12/12 11:50:34;;;;;;;7.00;2.33;;;;;;;;;;5047150;28;20108;-62
2023/12/12 11:53:01;;;;;;;9.98;2.33;;;;;;;;;;5049686;28;20045;-62
2023/12/12 11:55:32;;;;;;;7.68;2.00;;;;;;;;;;5047520;28;20365;-63
2023/12/12 11:58:07;;;;;;;8.38;2.40;;;;;;;;;;5047404;28;20057;-64
2023/12/12 12:00:37;;;;;;;9.27;2.80;;;;;;;;;;5043432;28;20044;-64
2023/12/12 12:03:04;;;;;;;8.07;2.22;;;;;;;;;;5042075;28;20041;-64
2023/12/12 12:05:30;;;;;;;9.35;2.42;;;;;;;;;;5047775;28;20601;-62
2023/12/12 12:07:56;;;;;;;7.93;2.10;;;;;;;;;;5036983;28;20050;-62
2023/12/12 12:10:22;;;;;;;9.95;2.20;;;;;;;;;;5048004;28;20068;-62
2023/12/12 12:12:58;;;;;;;8.55;2.28;;;;;;;;;;5049852;28;20029;-62
2023/12/12 12:15:24;;;;;;;7.70;2.10;;;;;;;;;;5048473;28;20075;-62
2023/12/12 12:17:50;;;;;;;9.27;2.15;;;;;;;;;;5044663;28;20057;-61
2023/12/12 12:20:16;;;;;;;7.80;1.90;;;;;;;;;;5049955;28;20509;-61
2023/12/12 12:22:42;;;;;;;7.50;2.08;;;;;;;;;;5046673;28;20041;-62
2023/12/12 12:25:08;;;;;;;6.47;2.35;;;;;;;;;;5048822;28;20055;-63
2023/12/12 12:27:53;;;;;;;7.47;1.90;;;;;;;;;;5044236;28;20061;-62
2023/12/12 12:30:19;;;;;;;8.07;2.13;;;;;;;;;;5045374;28;20037;-64
2023/12/12 12:33:02;;;;;;;7.13;2.05;;;;;;;;;;5049257;28;20494;-63
2023/12/12 12:35:28;;;;;;;8.52;2.05;;;;;;;;;;5046250;28;20091;-63
2023/12/12 12:37:53;;;;;;;8.55;2.10;;;;;;;;;;5050748;28;20025;-62
2023/12/12 12:40:33;;;;;;;5.57;2.10;;;;;;;;;;5047986;28;20039;-63
2023/12/12 12:43:00;;;;;;;8.57;2.00;;;;;;;;;;5050932;28;20052;-63
2023/12/12 12:45:26;;;;;;;4.47;1.65;;;;;;;;;;5041584;28;20032;-61
2023/12/12 12:47:51;;;;;;;8.77;2.20;;;;;;;;;;5051001;28;20032;-63
2023/12/12 12:50:17;;;;;;;8.13;2.17;;;;;;;;;;5048664;28;20411;-62
2023/12/12 12:52:42;;;;;;;9.50;1.92;;;;;;;;;;5049462;28;20029;-61
2023/12/12 12:55:07;;;;;;;6.95;2.10;;;;;;;;;;5050585;28;20035;-63
2023/12/12 12:57:33;;;;;;;9.50;2.13;;;;;;;;;;5049247;28;20585;-61
2023/12/12 12:59:58;;;;;;;9.27;2.03;;;;;;;;;;5049021;28;20025;-62
2023/12/12 13:02:24;;;;;;;7.53;1.98;;;;;;;;;;5044489;28;20043;-61
2023/12/12 13:04:50;;;;;;;8.98;2.58;;;;;;;;;;5051111;28;20463;-62
2023/12/12 13:07:16;;;;;;;6.72;2.20;;;;;;;;;;5052407;28;20124;-61
2023/12/12 13:09:43;;;;;;;7.00;2.25;;;;;;;;;;5054195;28;20032;-62
2023/12/12 13:12:08;;;;;;;6.65;1.83;;;;;;;;;;5052218;28;20035;-62
2023/12/12 13:14:33;;;;;;;9.85;2.22;;;;;;;;;;5048391;28;20360;-62
2023/12/12 13:16:59;;;;;;;9.07;2.42;;;;;;;;;;5053245;28;20411;-62
2023/12/12 13:19:26;;;;;;;11.23;1.88;;;;;;;;;;5051832;28;20471;-62
2023/12/12 13:21:55;;;;;;;6.38;1.90;;;;;;;;;;5045996;28;20045;-63
2023/12/12 13:24:22;;;;;;;8.73;2.00;;;;;;;;;;5042218;28;20037;-61
2023/12/12 13:26:52;;;;;;;6.55;2.05;;;;;;;;;;5041112;28;20145;-63
2023/12/12 13:29:19;;;;;;;5.68;1.70;;;;;;;;;;5053035;28;20029;-61
2023/12/12 13:31:44;;;;;;;6.22;1.67;;;;;;;;;;5046958;28;20037;-64
2023/12/12 13:34:11;;;;;;;5.50;1.77;;;;;;;;;;5047568;28;20029;-62
2023/12/12 13:36:37;;;;;;;4.07;1.52;;;;;;;;;;5028546;28;20384;-63
2023/12/12 13:39:03;;;;;;;6.10;1.90;;;;;;;;;;5052292;28;20040;-63
2023/12/12 13:41:29;;;;;;;5.28;1.75;;;;;;;;;;5049982;28;20029;-62
2023/12/12 13:43:54;;;;;;;4.95;1.50;;;;;;;;;;5053864;28;20066;-63
2023/12/12 13:46:20;;;;;;;5.90;1.50;;;;;;;;;;5047424;28;20108;-62
2023/12/12 13:48:45;;;;;;;5.68;1.50;;;;;;;;;;5049655;28;20044;-62
2023/12/12 13:51:11;;;;;;;5.82;1.80;;;;;;;;;;5051925;28;20028;-62
2023/12/12 13:53:36;;;;;;;4.03;1.42;;;;;;;;;;5039436;28;20021;-61
2023/12/12 13:56:03;;;;;;;6.25;1.85;;;;;;;;;;5034878;28;20045;-63
2023/12/12 13:58:28;;;;;;;4.03;1.80;;;;;;;;;;5032712;28;20083;-62
2023/12/12 14:00:54;;;;;;;5.32;1.70;;;;;;;;;;5028579;28;20030;-62
2023/12/12 14:03:20;;;;;;;3.97;1.40;;;;;;;;;;5050719;28;20079;-62
2023/12/12 14:05:45;;;;;;;7.22;1.60;;;;;;;;;;5048321;28;20082;-62
2023/12/12 14:08:11;;;;;;;5.45;1.45;;;;;;;;;;5049684;28;20041;-62
2023/12/12 14:10:37;;;;;;;4.07;1.75;;;;;;;;;;5050997;28;20024;-61
2023/12/12 14:13:02;;;;;;;8.15;2.15;;;;;;;;;;5053177;28;20037;-62
2023/12/12 14:15:28;;;;;;;7.30;2.03;;;;;;;;;;5046375;28;20036;-62
2023/12/12 14:17:54;;;;;;;7.65;1.77;;;;;;;;;;5052766;28;20036;-63
2023/12/12 14:20:19;;;;;;;6.20;1.80;;;;;;;;;;5050718;28;20045;-61
2023/12/12 14:22:45;;;;;;;6.82;1.63;;;;;;;;;;5047055;28;20041;-64
2023/12/12 14:25:11;;;;;;;9.02;2.00;;;;;;;;;;5050382;28;20029;-63
2023/12/12 14:27:36;;;;;;;5.25;1.80;;;;;;;;;;5047526;28;20546;-63